sensor_id;sensor_type;location;lat;lon;timestamp;P1;durP1;ratioP1;P2;durP2;ratioP2
68377;SDS011;55322;48.146;11.516;2022-12-24T00:00:26;4.43;;;0.70;;
68377;SDS011;55322;48.146;11.516;2022-12-24T00:02:53;3.30;;;0.60;;
68377;SDS011;55322;48.146;11.516;2022-12-24T00:05:18;3.07;;;0.50;;
68377;SDS011;55322;48.146;11.516;2022-12-24T00:07:44;3.33;;;0.50;;
68377;SDS011;55322;48.146;11.516;2022-12-24T00:10:09;2.97;;;0.60;;
68377;SDS011;55322;48.146;11.516;2022-12-24T00:12:35;2.93;;;0.50;;
68377;SDS011;55322;48.146;11.516;2022-12-24T00:15:02;4.10;;;0.60;;
68377;SDS011;55322;48.146;11.516;2022-12-24T00:17:28;3.50;;;0.50;;
68377;SDS011;55322;48.146;11.516;2022-12-24T00:19:53;3.83;;;0.68;;
68377;SDS011;55322;48.146;11.516;2022-12-24T00:22:19;3.27;;;0.57;;
68377;SDS011;55322;48.146;11.516;2022-12-24T00:24:44;3.23;;;0.60;;
68377;SDS011;55322;48.146;11.516;2022-12-24T00:27:09;3.30;;;0.70;;
68377;SDS011;55322;48.146;11.516;2022-12-24T00:29:35;4.47;;;0.60;;
68377;SDS011;55322;48.146;11.516;2022-12-24T00:32:00;3.20;;;0.50;;
68377;SDS011;55322;48.146;11.516;2022-12-24T00:34:25;3.33;;;0.60;;
68377;SDS011;55322;48.146;11.516;2022-12-24T00:36:51;4.70;;;0.90;;
68377;SDS011;55322;48.146;11.516;2022-12-24T00:39:16;3.47;;;0.60;;
68377;SDS011;55322;48.146;11.516;2022-12-24T00:41:42;4.00;;;0.60;;
68377;SDS011;55322;48.146;11.516;2022-12-24T00:44:07;3.60;;;0.60;;
68377;SDS011;55322;48.146;11.516;2022-12-24T00:46:39;2.97;;;0.50;;
68377;SDS011;55322;48.146;11.516;2022-12-24T00:49:05;3.87;;;0.60;;
68377;SDS011;55322;48.146;11.516;2022-12-24T00:51:32;3.13;;;0.50;;
68377;SDS011;55322;48.146;11.516;2022-12-24T00:53:59;3.80;;;0.95;;
68377;SDS011;55322;48.146;11.516;2022-12-24T00:56:25;4.57;;;0.57;;
68377;SDS011;55322;48.146;11.516;2022-12-24T00:58:50;3.03;;;0.55;;
68377;SDS011;55322;48.146;11.516;2022-12-24T01:01:16;4.73;;;0.73;;
68377;SDS011;55322;48.146;11.516;2022-12-24T01:03:42;3.63;;;0.60;;
68377;SDS011;55322;48.146;11.516;2022-12-24T01:06:09;3.10;;;0.50;;
68377;SDS011;55322;48.146;11.516;2022-12-24T01:08:37;3.75;;;0.70;;
68377;SDS011;55322;48.146;11.516;2022-12-24T01:11:03;4.03;;;0.68;;
68377;SDS011;55322;48.146;11.516;2022-12-24T01:13:30;3.63;;;0.60;;
68377;SDS011;55322;48.146;11.516;2022-12-24T01:15:55;3.40;;;0.68;;
68377;SDS011;55322;48.146;11.516;2022-12-24T01:18:21;3.83;;;0.63;;
68377;SDS011;55322;48.146;11.516;2022-12-24T01:20:54;4.07;;;0.63;;
68377;SDS011;55322;48.146;11.516;2022-12-24T01:23:24;3.83;;;0.70;;
68377;SDS011;55322;48.146;11.516;2022-12-24T01:25:49;3.60;;;0.67;;
68377;SDS011;55322;48.146;11.516;2022-12-24T01:28:15;4.72;;;0.70;;
68377;SDS011;55322;48.146;11.516;2022-12-24T01:30:40;5.00;;;0.63;;
68377;SDS011;55322;48.146;11.516;2022-12-24T01:33:06;4.70;;;0.70;;
68377;SDS011;55322;48.146;11.516;2022-12-24T01:35:32;3.97;;;0.60;;
68377;SDS011;55322;48.146;11.516;2022-12-24T01:37:57;4.17;;;0.73;;
68377;SDS011;55322;48.146;11.516;2022-12-24T01:40:24;3.20;;;0.57;;
68377;SDS011;55322;48.146;11.516;2022-12-24T01:43:18;3.50;;;0.50;;
68377;SDS011;55322;48.146;11.516;2022-12-24T01:48:27;3.53;;;0.60;;
68377;SDS011;55322;48.146;11.516;2022-12-24T01:53:34;3.20;;;0.60;;
68377;SDS011;55322;48.146;11.516;2022-12-24T01:56:02;3.08;;;0.50;;
68377;SDS011;55322;48.146;11.516;2022-12-24T01:58:30;4.13;;;0.60;;
68377;SDS011;55322;48.146;11.516;2022-12-24T02:00:58;4.03;;;0.60;;
68377;SDS011;55322;48.146;11.516;2022-12-24T02:03:23;5.03;;;0.65;;
68377;SDS011;55322;48.146;11.516;2022-12-24T02:05:52;3.97;;;0.60;;
68377;SDS011;55322;48.146;11.516;2022-12-24T02:08:20;3.38;;;0.60;;
68377;SDS011;55322;48.146;11.516;2022-12-24T02:10:47;4.07;;;0.65;;
68377;SDS011;55322;48.146;11.516;2022-12-24T02:13:14;3.23;;;0.50;;
68377;SDS011;55322;48.146;11.516;2022-12-24T02:15:44;3.42;;;0.60;;
68377;SDS011;55322;48.146;11.516;2022-12-24T02:18:21;4.78;;;0.60;;
68377;SDS011;55322;48.146;11.516;2022-12-24T02:21:15;3.60;;;0.60;;
68377;SDS011;55322;48.146;11.516;2022-12-24T02:23:53;3.80;;;0.50;;
68377;SDS011;55322;48.146;11.516;2022-12-24T02:38:24;4.03;;;0.70;;
68377;SDS011;55322;48.146;11.516;2022-12-24T02:40:55;5.90;;;0.90;;
68377;SDS011;55322;48.146;11.516;2022-12-24T02:43:26;5.63;;;0.70;;
68377;SDS011;55322;48.146;11.516;2022-12-24T02:45:57;3.22;;;0.55;;
68377;SDS011;55322;48.146;11.516;2022-12-24T02:48:26;3.90;;;0.60;;
68377;SDS011;55322;48.146;11.516;2022-12-24T02:51:04;5.47;;;0.70;;
68377;SDS011;55322;48.146;11.516;2022-12-24T02:53:32;3.67;;;0.50;;
68377;SDS011;55322;48.146;11.516;2022-12-24T02:58:41;3.80;;;0.55;;
68377;SDS011;55322;48.146;11.516;2022-12-24T03:06:58;4.03;;;0.60;;
68377;SDS011;55322;48.146;11.516;2022-12-24T03:09:48;5.55;;;0.63;;
68377;SDS011;55322;48.146;11.516;2022-12-24T03:12:40;3.30;;;0.63;;
68377;SDS011;55322;48.146;11.516;2022-12-24T03:15:09;3.72;;;0.65;;
68377;SDS011;55322;48.146;11.516;2022-12-24T03:17:37;4.05;;;0.50;;
68377;SDS011;55322;48.146;11.516;2022-12-24T03:20:05;4.73;;;0.50;;
68377;SDS011;55322;48.146;11.516;2022-12-24T03:22:33;3.88;;;0.57;;
68377;SDS011;55322;48.146;11.516;2022-12-24T03:24:59;4.63;;;0.60;;
68377;SDS011;55322;48.146;11.516;2022-12-24T03:27:25;5.22;;;0.68;;
68377;SDS011;55322;48.146;11.516;2022-12-24T03:29:52;4.05;;;0.60;;
68377;SDS011;55322;48.146;11.516;2022-12-24T03:32:22;6.53;;;1.13;;
68377;SDS011;55322;48.146;11.516;2022-12-24T03:34:57;4.35;;;0.70;;
68377;SDS011;55322;48.146;11.516;2022-12-24T03:37:23;4.80;;;0.60;;
68377;SDS011;55322;48.146;11.516;2022-12-24T03:39:49;4.28;;;0.63;;
68377;SDS011;55322;48.146;11.516;2022-12-24T03:42:15;5.07;;;0.60;;
68377;SDS011;55322;48.146;11.516;2022-12-24T03:44:40;5.80;;;0.50;;
68377;SDS011;55322;48.146;11.516;2022-12-24T03:47:06;5.17;;;0.57;;
68377;SDS011;55322;48.146;11.516;2022-12-24T03:49:31;4.37;;;0.67;;
68377;SDS011;55322;48.146;11.516;2022-12-24T03:51:57;4.47;;;0.70;;
68377;SDS011;55322;48.146;11.516;2022-12-24T03:54:22;4.17;;;0.70;;
68377;SDS011;55322;48.146;11.516;2022-12-24T03:56:47;4.33;;;0.57;;
68377;SDS011;55322;48.146;11.516;2022-12-24T03:59:13;4.77;;;0.70;;
68377;SDS011;55322;48.146;11.516;2022-12-24T04:01:38;3.53;;;0.70;;
68377;SDS011;55322;48.146;11.516;2022-12-24T04:04:04;3.70;;;0.60;;
68377;SDS011;55322;48.146;11.516;2022-12-24T04:06:29;3.37;;;0.60;;
68377;SDS011;55322;48.146;11.516;2022-12-24T04:08:55;5.17;;;0.77;;
68377;SDS011;55322;48.146;11.516;2022-12-24T04:11:20;4.20;;;0.70;;
68377;SDS011;55322;48.146;11.516;2022-12-24T04:13:46;4.23;;;0.60;;
68377;SDS011;55322;48.146;11.516;2022-12-24T04:16:15;4.17;;;0.60;;
68377;SDS011;55322;48.146;11.516;2022-12-24T04:18:41;3.80;;;0.60;;
68377;SDS011;55322;48.146;11.516;2022-12-24T04:21:07;4.57;;;0.67;;
68377;SDS011;55322;48.146;11.516;2022-12-24T04:23:33;3.30;;;0.50;;
68377;SDS011;55322;48.146;11.516;2022-12-24T04:26:00;6.78;;;0.80;;
68377;SDS011;55322;48.146;11.516;2022-12-24T04:28:30;4.07;;;0.45;;
68377;SDS011;55322;48.146;11.516;2022-12-24T04:31:00;6.97;;;0.77;;
68377;SDS011;55322;48.146;11.516;2022-12-24T04:33:26;3.88;;;0.50;;
68377;SDS011;55322;48.146;11.516;2022-12-24T04:35:52;4.32;;;0.50;;
68377;SDS011;55322;48.146;11.516;2022-12-24T04:38:17;4.60;;;0.50;;
68377;SDS011;55322;48.146;11.516;2022-12-24T04:40:43;4.13;;;0.47;;
68377;SDS011;55322;48.146;11.516;2022-12-24T04:43:09;4.73;;;0.60;;
68377;SDS011;55322;48.146;11.516;2022-12-24T04:45:34;5.17;;;0.80;;
68377;SDS011;55322;48.146;11.516;2022-12-24T04:47:59;3.67;;;0.60;;
68377;SDS011;55322;48.146;11.516;2022-12-24T04:50:25;4.70;;;0.60;;
68377;SDS011;55322;48.146;11.516;2022-12-24T04:52:50;3.67;;;0.60;;
68377;SDS011;55322;48.146;11.516;2022-12-24T04:55:16;3.13;;;0.60;;
68377;SDS011;55322;48.146;11.516;2022-12-24T04:57:41;5.00;;;0.70;;
68377;SDS011;55322;48.146;11.516;2022-12-24T05:00:07;3.97;;;0.70;;
68377;SDS011;55322;48.146;11.516;2022-12-24T05:02:33;4.57;;;0.70;;
68377;SDS011;55322;48.146;11.516;2022-12-24T05:04:58;3.25;;;0.50;;
68377;SDS011;55322;48.146;11.516;2022-12-24T05:07:23;3.43;;;0.50;;
68377;SDS011;55322;48.146;11.516;2022-12-24T05:09:49;5.60;;;0.60;;
68377;SDS011;55322;48.146;11.516;2022-12-24T05:12:14;4.93;;;0.67;;
68377;SDS011;55322;48.146;11.516;2022-12-24T05:14:40;4.53;;;0.80;;
68377;SDS011;55322;48.146;11.516;2022-12-24T05:17:05;4.35;;;0.68;;
68377;SDS011;55322;48.146;11.516;2022-12-24T05:19:30;3.30;;;0.50;;
68377;SDS011;55322;48.146;11.516;2022-12-24T05:21:56;3.50;;;0.43;;
68377;SDS011;55322;48.146;11.516;2022-12-24T05:24:40;3.22;;;0.40;;
68377;SDS011;55322;48.146;11.516;2022-12-24T05:27:24;3.80;;;0.60;;
68377;SDS011;55322;48.146;11.516;2022-12-24T05:29:49;3.67;;;0.60;;
68377;SDS011;55322;48.146;11.516;2022-12-24T05:32:14;4.17;;;0.50;;
68377;SDS011;55322;48.146;11.516;2022-12-24T05:34:40;4.37;;;0.80;;
68377;SDS011;55322;48.146;11.516;2022-12-24T05:37:05;4.22;;;0.52;;
68377;SDS011;55322;48.146;11.516;2022-12-24T05:39:31;5.67;;;0.90;;
68377;SDS011;55322;48.146;11.516;2022-12-24T05:41:56;6.57;;;0.60;;
68377;SDS011;55322;48.146;11.516;2022-12-24T05:44:21;4.97;;;0.70;;
68377;SDS011;55322;48.146;11.516;2022-12-24T05:46:47;3.53;;;0.50;;
68377;SDS011;55322;48.146;11.516;2022-12-24T05:49:13;3.83;;;0.50;;
68377;SDS011;55322;48.146;11.516;2022-12-24T05:51:38;4.90;;;0.60;;
68377;SDS011;55322;48.146;11.516;2022-12-24T05:54:06;5.32;;;0.90;;
68377;SDS011;55322;48.146;11.516;2022-12-24T05:56:32;3.55;;;0.55;;
68377;SDS011;55322;48.146;11.516;2022-12-24T05:58:58;4.70;;;0.63;;
68377;SDS011;55322;48.146;11.516;2022-12-24T06:01:24;3.53;;;0.77;;
68377;SDS011;55322;48.146;11.516;2022-12-24T06:03:50;3.33;;;0.40;;
68377;SDS011;55322;48.146;11.516;2022-12-24T06:06:20;3.70;;;0.60;;
68377;SDS011;55322;48.146;11.516;2022-12-24T06:08:48;3.47;;;0.50;;
68377;SDS011;55322;48.146;11.516;2022-12-24T06:11:15;3.53;;;0.57;;
68377;SDS011;55322;48.146;11.516;2022-12-24T06:13:41;5.28;;;0.80;;
68377;SDS011;55322;48.146;11.516;2022-12-24T06:16:08;3.53;;;0.50;;
68377;SDS011;55322;48.146;11.516;2022-12-24T06:18:37;5.35;;;0.60;;
68377;SDS011;55322;48.146;11.516;2022-12-24T06:21:03;3.90;;;0.70;;
68377;SDS011;55322;48.146;11.516;2022-12-24T06:23:31;6.10;;;0.70;;
68377;SDS011;55322;48.146;11.516;2022-12-24T06:25:58;5.18;;;0.60;;
68377;SDS011;55322;48.146;11.516;2022-12-24T06:28:25;4.03;;;0.60;;
68377;SDS011;55322;48.146;11.516;2022-12-24T06:30:51;5.20;;;0.60;;
68377;SDS011;55322;48.146;11.516;2022-12-24T06:33:17;4.73;;;0.70;;
68377;SDS011;55322;48.146;11.516;2022-12-24T06:35:46;6.77;;;0.70;;
68377;SDS011;55322;48.146;11.516;2022-12-24T06:38:12;3.45;;;0.60;;
68377;SDS011;55322;48.146;11.516;2022-12-24T06:40:38;4.18;;;0.60;;
68377;SDS011;55322;48.146;11.516;2022-12-24T06:43:04;4.53;;;0.60;;
68377;SDS011;55322;48.146;11.516;2022-12-24T06:45:30;4.10;;;0.80;;
68377;SDS011;55322;48.146;11.516;2022-12-24T06:47:56;5.80;;;0.60;;
68377;SDS011;55322;48.146;11.516;2022-12-24T06:50:21;3.77;;;0.60;;
68377;SDS011;55322;48.146;11.516;2022-12-24T06:52:47;4.37;;;0.53;;
68377;SDS011;55322;48.146;11.516;2022-12-24T06:55:12;2.70;;;0.40;;
68377;SDS011;55322;48.146;11.516;2022-12-24T06:57:37;3.87;;;0.50;;
68377;SDS011;55322;48.146;11.516;2022-12-24T07:00:03;2.90;;;0.40;;
68377;SDS011;55322;48.146;11.516;2022-12-24T07:02:30;2.57;;;0.40;;
68377;SDS011;55322;48.146;11.516;2022-12-24T07:04:56;3.72;;;0.40;;
68377;SDS011;55322;48.146;11.516;2022-12-24T07:07:21;3.00;;;0.40;;
68377;SDS011;55322;48.146;11.516;2022-12-24T07:09:46;3.57;;;0.57;;
68377;SDS011;55322;48.146;11.516;2022-12-24T07:12:12;3.93;;;0.40;;
68377;SDS011;55322;48.146;11.516;2022-12-24T07:14:37;4.53;;;0.50;;
68377;SDS011;55322;48.146;11.516;2022-12-24T07:17:02;2.43;;;0.40;;
68377;SDS011;55322;48.146;11.516;2022-12-24T07:19:28;3.83;;;0.57;;
68377;SDS011;55322;48.146;11.516;2022-12-24T07:21:53;3.23;;;0.50;;
68377;SDS011;55322;48.146;11.516;2022-12-24T07:24:19;3.43;;;0.53;;
68377;SDS011;55322;48.146;11.516;2022-12-24T07:26:44;4.33;;;0.50;;
68377;SDS011;55322;48.146;11.516;2022-12-24T07:29:09;4.00;;;0.50;;
68377;SDS011;55322;48.146;11.516;2022-12-24T07:31:35;5.03;;;0.50;;
68377;SDS011;55322;48.146;11.516;2022-12-24T07:34:00;2.83;;;0.50;;
68377;SDS011;55322;48.146;11.516;2022-12-24T07:36:26;4.07;;;0.53;;
68377;SDS011;55322;48.146;11.516;2022-12-24T07:38:52;3.97;;;0.50;;
68377;SDS011;55322;48.146;11.516;2022-12-24T07:41:18;3.63;;;0.45;;
68377;SDS011;55322;48.146;11.516;2022-12-24T07:43:44;3.00;;;0.30;;
68377;SDS011;55322;48.146;11.516;2022-12-24T07:46:09;3.28;;;0.40;;
68377;SDS011;55322;48.146;11.516;2022-12-24T07:48:35;2.60;;;0.40;;
68377;SDS011;55322;48.146;11.516;2022-12-24T07:51:02;3.28;;;0.40;;
68377;SDS011;55322;48.146;11.516;2022-12-24T07:53:28;3.25;;;0.40;;
68377;SDS011;55322;48.146;11.516;2022-12-24T07:55:54;2.27;;;0.40;;
68377;SDS011;55322;48.146;11.516;2022-12-24T07:58:20;2.58;;;0.40;;
68377;SDS011;55322;48.146;11.516;2022-12-24T08:00:46;4.25;;;0.50;;
68377;SDS011;55322;48.146;11.516;2022-12-24T08:03:15;3.67;;;0.50;;
68377;SDS011;55322;48.146;11.516;2022-12-24T08:05:41;4.07;;;0.50;;
68377;SDS011;55322;48.146;11.516;2022-12-24T08:08:07;2.33;;;0.40;;
68377;SDS011;55322;48.146;11.516;2022-12-24T08:10:32;3.37;;;0.50;;
68377;SDS011;55322;48.146;11.516;2022-12-24T08:12:57;3.20;;;0.50;;
68377;SDS011;55322;48.146;11.516;2022-12-24T08:15:23;3.80;;;0.50;;
68377;SDS011;55322;48.146;11.516;2022-12-24T08:17:48;3.47;;;0.40;;
68377;SDS011;55322;48.146;11.516;2022-12-24T08:20:13;4.27;;;0.50;;
68377;SDS011;55322;48.146;11.516;2022-12-24T08:22:41;4.00;;;0.50;;
68377;SDS011;55322;48.146;11.516;2022-12-24T08:25:06;3.73;;;0.43;;
68377;SDS011;55322;48.146;11.516;2022-12-24T08:27:32;3.78;;;0.57;;
68377;SDS011;55322;48.146;11.516;2022-12-24T08:29:57;2.83;;;0.50;;
68377;SDS011;55322;48.146;11.516;2022-12-24T08:32:23;3.33;;;0.40;;
68377;SDS011;55322;48.146;11.516;2022-12-24T08:34:48;3.50;;;0.50;;
68377;SDS011;55322;48.146;11.516;2022-12-24T08:37:14;3.93;;;0.50;;
68377;SDS011;55322;48.146;11.516;2022-12-24T08:39:39;3.70;;;0.52;;
68377;SDS011;55322;48.146;11.516;2022-12-24T08:42:04;3.20;;;0.40;;
68377;SDS011;55322;48.146;11.516;2022-12-24T08:44:30;4.03;;;0.40;;
68377;SDS011;55322;48.146;11.516;2022-12-24T08:46:55;3.73;;;0.40;;
68377;SDS011;55322;48.146;11.516;2022-12-24T08:49:20;3.63;;;0.40;;
68377;SDS011;55322;48.146;11.516;2022-12-24T08:51:47;3.88;;;0.45;;
68377;SDS011;55322;48.146;11.516;2022-12-24T08:54:13;3.30;;;0.50;;
68377;SDS011;55322;48.146;11.516;2022-12-24T08:56:38;4.07;;;0.60;;
68377;SDS011;55322;48.146;11.516;2022-12-24T08:59:03;3.03;;;0.50;;
68377;SDS011;55322;48.146;11.516;2022-12-24T09:01:29;2.50;;;0.40;;
68377;SDS011;55322;48.146;11.516;2022-12-24T09:03:55;3.57;;;0.63;;
68377;SDS011;55322;48.146;11.516;2022-12-24T09:06:21;3.92;;;0.43;;
68377;SDS011;55322;48.146;11.516;2022-12-24T09:08:47;3.65;;;0.60;;
68377;SDS011;55322;48.146;11.516;2022-12-24T09:11:13;2.50;;;0.40;;
68377;SDS011;55322;48.146;11.516;2022-12-24T09:13:40;4.63;;;0.80;;
68377;SDS011;55322;48.146;11.516;2022-12-24T09:16:06;3.20;;;0.40;;
68377;SDS011;55322;48.146;11.516;2022-12-24T09:18:32;4.10;;;0.43;;
68377;SDS011;55322;48.146;11.516;2022-12-24T09:21:01;4.30;;;0.83;;
68377;SDS011;55322;48.146;11.516;2022-12-24T09:23:29;5.15;;;0.85;;
68377;SDS011;55322;48.146;11.516;2022-12-24T09:25:55;4.30;;;0.50;;
68377;SDS011;55322;48.146;11.516;2022-12-24T09:28:21;3.50;;;0.43;;
68377;SDS011;55322;48.146;11.516;2022-12-24T09:30:59;4.28;;;0.50;;
68377;SDS011;55322;48.146;11.516;2022-12-24T09:33:27;3.87;;;0.57;;
68377;SDS011;55322;48.146;11.516;2022-12-24T09:35:54;4.30;;;0.40;;
68377;SDS011;55322;48.146;11.516;2022-12-24T09:38:20;3.38;;;0.60;;
68377;SDS011;55322;48.146;11.516;2022-12-24T09:40:45;3.10;;;0.55;;
68377;SDS011;55322;48.146;11.516;2022-12-24T09:45:47;5.60;;;0.50;;
68377;SDS011;55322;48.146;11.516;2022-12-24T09:48:27;3.00;;;0.47;;
68377;SDS011;55322;48.146;11.516;2022-12-24T09:51:02;3.92;;;0.63;;
68377;SDS011;55322;48.146;11.516;2022-12-24T09:55:59;2.20;;;0.40;;
68377;SDS011;55322;48.146;11.516;2022-12-24T10:01:03;4.53;;;0.40;;
68377;SDS011;55322;48.146;11.516;2022-12-24T10:03:28;3.90;;;0.60;;
68377;SDS011;55322;48.146;11.516;2022-12-24T10:10:49;3.77;;;0.37;;
68377;SDS011;55322;48.146;11.516;2022-12-24T10:15:55;4.67;;;0.70;;
68377;SDS011;55322;48.146;11.516;2022-12-24T10:18:39;3.80;;;0.50;;
68377;SDS011;55322;48.146;11.516;2022-12-24T10:21:11;4.30;;;0.52;;
68377;SDS011;55322;48.146;11.516;2022-12-24T10:23:46;4.55;;;0.50;;
68377;SDS011;55322;48.146;11.516;2022-12-24T10:26:22;3.70;;;0.63;;
68377;SDS011;55322;48.146;11.516;2022-12-24T10:28:55;3.37;;;0.47;;
68377;SDS011;55322;48.146;11.516;2022-12-24T10:31:28;5.60;;;0.60;;
68377;SDS011;55322;48.146;11.516;2022-12-24T10:34:03;3.80;;;0.50;;
68377;SDS011;55322;48.146;11.516;2022-12-24T10:36:34;3.60;;;0.50;;
68377;SDS011;55322;48.146;11.516;2022-12-24T10:39:00;5.30;;;0.60;;
68377;SDS011;55322;48.146;11.516;2022-12-24T10:41:25;4.53;;;0.50;;
68377;SDS011;55322;48.146;11.516;2022-12-24T10:43:52;4.60;;;0.50;;
68377;SDS011;55322;48.146;11.516;2022-12-24T10:46:22;3.72;;;0.50;;
68377;SDS011;55322;48.146;11.516;2022-12-24T10:49:06;3.47;;;0.50;;
68377;SDS011;55322;48.146;11.516;2022-12-24T10:51:37;5.00;;;0.50;;
68377;SDS011;55322;48.146;11.516;2022-12-24T10:54:12;5.18;;;0.40;;
68377;SDS011;55322;48.146;11.516;2022-12-24T10:56:45;3.88;;;0.50;;
68377;SDS011;55322;48.146;11.516;2022-12-24T11:05:22;4.47;;;0.50;;
68377;SDS011;55322;48.146;11.516;2022-12-24T11:08:25;4.65;;;0.60;;
68377;SDS011;55322;48.146;11.516;2022-12-24T11:11:06;4.75;;;0.60;;
68377;SDS011;55322;48.146;11.516;2022-12-24T11:13:38;3.33;;;0.52;;
68377;SDS011;55322;48.146;11.516;2022-12-24T11:16:16;4.13;;;0.70;;
68377;SDS011;55322;48.146;11.516;2022-12-24T11:18:49;4.30;;;0.67;;
68377;SDS011;55322;48.146;11.516;2022-12-24T11:21:26;3.30;;;0.60;;
68377;SDS011;55322;48.146;11.516;2022-12-24T11:23:55;4.47;;;0.80;;
68377;SDS011;55322;48.146;11.516;2022-12-24T11:26:30;5.32;;;0.60;;
68377;SDS011;55322;48.146;11.516;2022-12-24T11:29:41;4.30;;;0.60;;
68377;SDS011;55322;48.146;11.516;2022-12-24T11:31:47;4.85;;;0.63;;
68377;SDS011;55322;48.146;11.516;2022-12-24T11:34:22;3.72;;;0.60;;
68377;SDS011;55322;48.146;11.516;2022-12-24T11:36:50;3.93;;;0.60;;
68377;SDS011;55322;48.146;11.516;2022-12-24T11:39:18;4.30;;;0.50;;
68377;SDS011;55322;48.146;11.516;2022-12-24T11:41:46;4.60;;;0.50;;
68377;SDS011;55322;48.146;11.516;2022-12-24T11:44:12;5.07;;;0.57;;
68377;SDS011;55322;48.146;11.516;2022-12-24T11:46:39;3.20;;;0.50;;
68377;SDS011;55322;48.146;11.516;2022-12-24T11:51:35;4.70;;;0.70;;
68377;SDS011;55322;48.146;11.516;2022-12-24T11:54:05;4.68;;;0.50;;
68377;SDS011;55322;48.146;11.516;2022-12-24T11:56:47;4.67;;;0.50;;
68377;SDS011;55322;48.146;11.516;2022-12-24T12:01:45;5.37;;;0.50;;
68377;SDS011;55322;48.146;11.516;2022-12-24T12:04:21;5.50;;;0.70;;
68377;SDS011;55322;48.146;11.516;2022-12-24T12:07:10;3.42;;;0.50;;
68377;SDS011;55322;48.146;11.516;2022-12-24T12:09:44;5.30;;;0.50;;
68377;SDS011;55322;48.146;11.516;2022-12-24T12:12:14;3.75;;;0.55;;
68377;SDS011;55322;48.146;11.516;2022-12-24T12:14:47;4.83;;;0.80;;
68377;SDS011;55322;48.146;11.516;2022-12-24T12:19:56;6.05;;;0.70;;
68377;SDS011;55322;48.146;11.516;2022-12-24T12:27:54;4.57;;;0.60;;
68377;SDS011;55322;48.146;11.516;2022-12-24T12:30:21;4.72;;;0.60;;
68377;SDS011;55322;48.146;11.516;2022-12-24T12:32:49;5.05;;;0.70;;
68377;SDS011;55322;48.146;11.516;2022-12-24T12:37:54;5.23;;;0.73;;
68377;SDS011;55322;48.146;11.516;2022-12-24T12:40:22;3.63;;;0.60;;
68377;SDS011;55322;48.146;11.516;2022-12-24T12:45:52;4.53;;;0.70;;
68377;SDS011;55322;48.146;11.516;2022-12-24T12:48:26;3.97;;;0.50;;
68377;SDS011;55322;48.146;11.516;2022-12-24T12:51:10;7.63;;;0.70;;
68377;SDS011;55322;48.146;11.516;2022-12-24T12:53:52;4.75;;;0.63;;
68377;SDS011;55322;48.146;11.516;2022-12-24T12:56:33;4.28;;;0.60;;
68377;SDS011;55322;48.146;11.516;2022-12-24T12:59:12;4.97;;;0.70;;
68377;SDS011;55322;48.146;11.516;2022-12-24T13:07:33;4.05;;;0.65;;
68377;SDS011;55322;48.146;11.516;2022-12-24T13:13:50;5.20;;;0.55;;
68377;SDS011;55322;48.146;11.516;2022-12-24T13:16:22;6.45;;;0.63;;
68377;SDS011;55322;48.146;11.516;2022-12-24T13:21:31;6.97;;;0.70;;
68377;SDS011;55322;48.146;11.516;2022-12-24T13:26:42;2.80;;;0.40;;
68377;SDS011;55322;48.146;11.516;2022-12-24T13:29:33;3.53;;;0.50;;
68377;SDS011;55322;48.146;11.516;2022-12-24T13:34:49;3.70;;;0.40;;
68377;SDS011;55322;48.146;11.516;2022-12-24T13:37:21;4.22;;;0.60;;
68377;SDS011;55322;48.146;11.516;2022-12-24T13:45:37;5.07;;;0.50;;
68377;SDS011;55322;48.146;11.516;2022-12-24T13:53:00;3.97;;;0.50;;
68377;SDS011;55322;48.146;11.516;2022-12-24T13:55:26;4.53;;;0.80;;
68377;SDS011;55322;48.146;11.516;2022-12-24T13:57:56;4.70;;;0.60;;
68377;SDS011;55322;48.146;11.516;2022-12-24T14:00:27;4.38;;;0.60;;
68377;SDS011;55322;48.146;11.516;2022-12-24T14:08:29;3.40;;;0.50;;
68377;SDS011;55322;48.146;11.516;2022-12-24T14:11:06;4.38;;;0.40;;
68377;SDS011;55322;48.146;11.516;2022-12-24T14:16:02;4.70;;;0.63;;
68377;SDS011;55322;48.146;11.516;2022-12-24T14:18:29;3.90;;;0.77;;
68377;SDS011;55322;48.146;11.516;2022-12-24T14:20:58;3.38;;;0.52;;
68377;SDS011;55322;48.146;11.516;2022-12-24T14:26:07;5.85;;;0.60;;
68377;SDS011;55322;48.146;11.516;2022-12-24T14:28:39;4.13;;;0.50;;
68377;SDS011;55322;48.146;11.516;2022-12-24T14:31:15;4.10;;;0.50;;
68377;SDS011;55322;48.146;11.516;2022-12-24T14:33:42;4.63;;;0.55;;
68377;SDS011;55322;48.146;11.516;2022-12-24T14:36:08;3.47;;;0.57;;
68377;SDS011;55322;48.146;11.516;2022-12-24T14:38:34;3.40;;;0.40;;
68377;SDS011;55322;48.146;11.516;2022-12-24T14:43:59;5.37;;;0.90;;
68377;SDS011;55322;48.146;11.516;2022-12-24T14:46:55;4.65;;;0.50;;
68377;SDS011;55322;48.146;11.516;2022-12-24T14:54:32;5.47;;;0.45;;
68377;SDS011;55322;48.146;11.516;2022-12-24T14:59:41;4.18;;;0.60;;
68377;SDS011;55322;48.146;11.516;2022-12-24T15:05:08;4.28;;;0.60;;
68377;SDS011;55322;48.146;11.516;2022-12-24T15:07:42;3.90;;;0.60;;
68377;SDS011;55322;48.146;11.516;2022-12-24T15:13:21;4.88;;;0.63;;
68377;SDS011;55322;48.146;11.516;2022-12-24T15:16:11;5.13;;;0.60;;
68377;SDS011;55322;48.146;11.516;2022-12-24T15:18:43;24.15;;;12.75;;
68377;SDS011;55322;48.146;11.516;2022-12-24T15:21:14;62.63;;;14.45;;
68377;SDS011;55322;48.146;11.516;2022-12-24T15:23:45;24.57;;;7.70;;
68377;SDS011;55322;48.146;11.516;2022-12-24T15:28:48;9.60;;;4.60;;
68377;SDS011;55322;48.146;11.516;2022-12-24T15:31:17;4.30;;;0.70;;
68377;SDS011;55322;48.146;11.516;2022-12-24T21:49:49;7.95;;;3.20;;
68377;SDS011;55322;48.146;11.516;2022-12-24T21:52:33;7.07;;;2.83;;
68377;SDS011;55322;48.146;11.516;2022-12-24T21:54:59;6.73;;;2.60;;
68377;SDS011;55322;48.146;11.516;2022-12-24T21:57:24;7.67;;;2.90;;
68377;SDS011;55322;48.146;11.516;2022-12-24T22:00:08;7.90;;;3.03;;
68377;SDS011;55322;48.146;11.516;2022-12-24T22:02:50;7.32;;;2.65;;
68377;SDS011;55322;48.146;11.516;2022-12-24T22:05:20;8.60;;;2.85;;
68377;SDS011;55322;48.146;11.516;2022-12-24T22:07:52;8.17;;;2.87;;
68377;SDS011;55322;48.146;11.516;2022-12-24T22:10:37;7.15;;;2.70;;
68377;SDS011;55322;48.146;11.516;2022-12-24T22:13:24;7.03;;;2.50;;
68377;SDS011;55322;48.146;11.516;2022-12-24T22:15:51;6.97;;;2.72;;
68377;SDS011;55322;48.146;11.516;2022-12-24T22:18:32;6.72;;;2.80;;
68377;SDS011;55322;48.146;11.516;2022-12-24T22:21:00;8.60;;;2.63;;
68377;SDS011;55322;48.146;11.516;2022-12-24T22:23:32;6.95;;;2.67;;
68377;SDS011;55322;48.146;11.516;2022-12-24T22:25:58;7.13;;;3.00;;
68377;SDS011;55322;48.146;11.516;2022-12-24T22:28:23;7.60;;;3.00;;
68377;SDS011;55322;48.146;11.516;2022-12-24T22:30:48;7.33;;;3.00;;
68377;SDS011;55322;48.146;11.516;2022-12-24T22:33:14;7.57;;;2.78;;
68377;SDS011;55322;48.146;11.516;2022-12-24T22:35:40;8.20;;;3.20;;
68377;SDS011;55322;48.146;11.516;2022-12-24T22:38:09;8.25;;;2.53;;
68377;SDS011;55322;48.146;11.516;2022-12-24T22:40:34;9.50;;;2.80;;
68377;SDS011;55322;48.146;11.516;2022-12-24T22:43:02;7.47;;;2.90;;
68377;SDS011;55322;48.146;11.516;2022-12-24T22:45:27;8.32;;;3.00;;
68377;SDS011;55322;48.146;11.516;2022-12-24T22:47:52;6.60;;;2.77;;
68377;SDS011;55322;48.146;11.516;2022-12-24T22:50:18;8.60;;;2.70;;
68377;SDS011;55322;48.146;11.516;2022-12-24T22:52:43;6.77;;;2.47;;
68377;SDS011;55322;48.146;11.516;2022-12-24T22:55:08;6.63;;;2.60;;
68377;SDS011;55322;48.146;11.516;2022-12-24T22:57:34;7.33;;;2.60;;
68377;SDS011;55322;48.146;11.516;2022-12-24T22:59:59;8.03;;;2.50;;
68377;SDS011;55322;48.146;11.516;2022-12-24T23:02:24;7.83;;;2.57;;